Time,TemperatureF,DewpointF,PressureIn,WindDirection,WindDirectionDegrees,WindSpeedMPH,WindSpeedGustMPH,Humidity,HourlyPrecipIn,Conditions,Clouds,dailyrainin,SoftwareType,DateUTC
2013-06-11 00:07:00,73.0,72.4,29.75,SW,225,5.8,-999.0,98,-99.99,,,0.00,Acu-Link.com,2013-06-11 04:07:00,
2013-06-11 00:22:00,71.8,71.2,29.75,South,180,16.1,-999.0,98,-99.99,,,0.02,Acu-Link.com,2013-06-11 04:22:00,
2013-06-11 00:37:00,70.7,70.1,29.75,SSW,202,6.3,-999.0,98,-99.99,,,0.12,Acu-Link.com,2013-06-11 04:37:00,
2013-06-11 00:52:00,70.3,69.7,29.74,South,180,5.8,-999.0,98,-99.99,,,0.12,Acu-Link.com,2013-06-11 04:52:00,
2013-06-11 01:08:00,70.2,69.6,29.74,South,180,5.3,-999.0,98,-99.99,,,0.12,Acu-Link.com,2013-06-11 05:08:00,
2013-06-11 01:23:00,70.5,69.9,29.74,SW,225,6.3,-999.0,98,-99.99,,,0.12,Acu-Link.com,2013-06-11 05:23:00,
2013-06-11 01:38:00,70.9,70.3,29.74,South,180,5.3,-999.0,98,-99.99,,,0.12,Acu-Link.com,2013-06-11 05:38:00,
2013-06-11 01:53:00,71.2,70.6,29.73,South,180,6.3,-999.0,98,-99.99,,,0.12,Acu-Link.com,2013-06-11 05:53:00,
2013-06-11 02:08:00,71.6,71.0,29.73,South,180,3.2,-999.0,98,-99.99,,,0.12,Acu-Link.com,2013-06-11 06:08:00,
2013-06-11 02:23:00,72.0,71.4,29.73,SW,225,4.2,-999.0,98,-99.99,,,0.12,Acu-Link.com,2013-06-11 06:23:00,
2013-06-11 02:38:00,72.0,71.4,29.72,SW,225,3.7,-999.0,98,-99.99,,,0.12,Acu-Link.com,2013-06-11 06:38:00,
2013-06-11 02:53:00,72.0,71.4,29.71,South,180,4.2,-999.0,98,-99.99,,,0.12,Acu-Link.com,2013-06-11 06:53:00,
2013-06-11 03:08:00,72.3,71.7,29.71,ESE,112,5.3,-999.0,98,-99.99,,,0.12,Acu-Link.com,2013-06-11 07:08:00,
2013-06-11 03:24:00,72.3,71.7,29.72,South,180,5.8,-999.0,98,-99.99,,,0.12,Acu-Link.com,2013-06-11 07:24:00,
2013-06-11 03:39:00,72.3,71.7,29.71,SSE,157,4.7,-999.0,98,-99.99,,,0.12,Acu-Link.com,2013-06-11 07:39:00,
2013-06-11 03:54:00,72.1,71.5,29.71,SW,225,3.2,-999.0,98,-99.99,,,0.12,Acu-Link.com,2013-06-11 07:54:00,
2013-06-11 04:09:00,72.1,71.5,29.71,South,180,3.7,-999.0,98,-99.99,,,0.12,Acu-Link.com,2013-06-11 08:09:00,
2013-06-11 04:24:00,71.8,71.2,29.71,SSE,157,2.7,-999.0,98,-99.99,,,0.12,Acu-Link.com,2013-06-11 08:24:00,
2013-06-11 04:39:00,71.4,70.8,29.71,SSW,202,2.7,-999.0,98,-99.99,,,0.12,Acu-Link.com,2013-06-11 08:39:00,
2013-06-11 04:55:00,71.4,70.8,29.72,SSW,202,6.8,-999.0,98,-99.99,,,0.12,Acu-Link.com,2013-06-11 08:55:00,
2013-06-11 05:10:00,71.4,70.8,29.72,SSW,202,6.3,-999.0,98,-99.99,,,0.12,Acu-Link.com,2013-06-11 09:10:00,
2013-06-11 05:25:00,71.1,70.5,29.72,South,180,4.7,-999.0,98,-99.99,,,0.12,Acu-Link.com,2013-06-11 09:25:00,
2013-06-11 05:40:00,70.7,70.1,29.72,SSE,157,5.8,-999.0,98,-99.99,,,0.12,Acu-Link.com,2013-06-11 09:40:00,
2013-06-11 05:55:00,70.5,69.9,29.72,ESE,112,3.7,-999.0,98,-99.99,,,0.12,Acu-Link.com,2013-06-11 09:55:00,
2013-06-11 06:10:00,70.5,69.9,29.72,SSE,157,4.2,-999.0,98,-99.99,,,0.12,Acu-Link.com,2013-06-11 10:10:00,
2013-06-11 06:25:00,70.5,69.9,29.72,SSE,157,6.3,-999.0,98,-99.99,,,0.12,Acu-Link.com,2013-06-11 10:25:00,
2013-06-11 06:40:00,70.9,70.3,29.72,SSW,202,5.8,-999.0,98,-99.99,,,0.12,Acu-Link.com,2013-06-11 10:40:00,
2013-06-11 06:55:00,71.1,70.5,29.72,SSW,202,5.8,-999.0,98,-99.99,,,0.12,Acu-Link.com,2013-06-11 10:55:00,
2013-06-11 07:11:00,71.4,70.8,29.72,SSW,202,4.7,-999.0,98,-99.99,,,0.12,Acu-Link.com,2013-06-11 11:11:00,
2013-06-11 07:41:00,72.1,71.5,29.73,South,180,4.7,-999.0,98,-99.99,,,0.12,Acu-Link.com,2013-06-11 11:41:00,
2013-06-11 07:56:00,73.0,72.4,29.73,SSW,202,3.7,-999.0,98,-99.99,,,0.12,Acu-Link.com,2013-06-11 11:56:00,
2013-06-11 08:11:00,73.9,73.3,29.73,South,180,7.8,-999.0,98,-99.99,,,0.12,Acu-Link.com,2013-06-11 12:11:00,
2013-06-11 08:26:00,75.6,75.0,29.72,South,180,4.2,-999.0,98,-99.99,,,0.12,Acu-Link.com,2013-06-11 12:26:00,
2013-06-11 08:42:00,76.6,76.0,29.73,SSW,202,7.3,-999.0,98,-99.99,,,0.12,Acu-Link.com,2013-06-11 12:42:00,
2013-06-11 08:57:00,77.4,76.8,29.72,SSW,202,4.2,-999.0,98,-99.99,,,0.12,Acu-Link.com,2013-06-11 12:57:00,
2013-06-11 09:12:00,75.9,75.3,29.71,SSW,202,4.7,-999.0,98,-99.99,,,0.12,Acu-Link.com,2013-06-11 13:12:00,
2013-06-11 09:27:00,75.6,75.0,29.72,SSW,202,5.3,-999.0,98,-99.99,,,0.12,Acu-Link.com,2013-06-11 13:27:00,
2013-06-11 09:42:00,76.3,75.7,29.72,SSW,202,4.7,-999.0,98,-99.99,,,0.12,Acu-Link.com,2013-06-11 13:42:00,
2013-06-11 09:57:00,77.0,76.4,29.72,South,180,4.7,-999.0,98,-99.99,,,0.12,Acu-Link.com,2013-06-11 13:57:00,
2013-06-11 10:12:00,76.8,76.2,29.71,South,180,5.3,-999.0,98,-99.99,,,0.12,Acu-Link.com,2013-06-11 14:12:00,
2013-06-11 10:27:00,77.0,76.4,29.71,South,180,6.8,-999.0,98,-99.99,,,0.12,Acu-Link.com,2013-06-11 14:27:00,
2013-06-11 10:42:00,79.2,78.6,29.71,SSW,202,4.7,-999.0,98,-99.99,,,0.12,Acu-Link.com,2013-06-11 14:42:00,
2013-06-11 10:58:00,80.4,79.8,29.71,NW,315,3.7,-999.0,98,-99.99,,,0.12,Acu-Link.com,2013-06-11 14:58:00,
2013-06-11 11:13:00,82.0,81.4,29.70,SSW,202,5.3,-999.0,98,-99.99,,,0.12,Acu-Link.com,2013-06-11 15:13:00,
2013-06-11 11:28:00,82.4,81.8,29.69,SSW,202,2.7,-999.0,98,-99.99,,,0.12,Acu-Link.com,2013-06-11 15:28:00,
2013-06-11 11:43:00,83.7,83.1,29.69,NNW,337,3.2,-999.0,98,-99.99,,,0.12,Acu-Link.com,2013-06-11 15:43:00,
2013-06-11 11:58:00,83.5,82.9,29.69,South,180,3.7,-999.0,98,-99.99,,,0.12,Acu-Link.com,2013-06-11 15:58:00,
2013-06-11 12:13:00,84.6,84.0,29.69,SSE,157,3.2,-999.0,98,-99.99,,,0.12,Acu-Link.com,2013-06-11 16:13:00,
2013-06-11 12:28:00,84.2,82.6,29.69,SW,225,3.7,-999.0,95,-99.99,,,0.12,Acu-Link.com,2013-06-11 16:28:00,
2013-06-11 12:43:00,84.0,83.4,29.68,ESE,112,3.2,-999.0,98,-99.99,,,0.12,Acu-Link.com,2013-06-11 16:43:00,
2013-06-11 12:58:00,84.6,82.0,29.68,South,180,6.3,-999.0,92,-99.99,,,0.12,Acu-Link.com,2013-06-11 16:58:00,
2013-06-11 13:14:00,84.7,81.1,29.67,SW,225,6.3,-999.0,89,-99.99,,,0.12,Acu-Link.com,2013-06-11 17:14:00,
2013-06-11 13:29:00,84.0,81.7,29.67,WSW,247,5.8,-999.0,93,-99.99,,,0.12,Acu-Link.com,2013-06-11 17:29:00,
2013-06-11 13:44:00,84.9,78.8,29.67,South,180,6.8,-999.0,82,-99.99,,,0.12,Acu-Link.com,2013-06-11 17:44:00,
2013-06-11 13:59:00,86.9,78.8,29.67,SSE,157,6.8,-999.0,77,-99.99,,,0.12,Acu-Link.com,2013-06-11 17:59:00,
2013-06-11 14:14:00,86.5,78.4,29.66,SE,135,6.3,-999.0,77,-99.99,,,0.12,Acu-Link.com,2013-06-11 18:14:00,
2013-06-11 14:29:00,85.5,76.6,29.66,NW,315,4.2,-999.0,75,-99.99,,,0.12,Acu-Link.com,2013-06-11 18:29:00,
2013-06-11 14:44:00,84.7,78.6,29.65,NNW,337,5.3,-999.0,82,-99.99,,,0.12,Acu-Link.com,2013-06-11 18:44:00,
2013-06-11 14:59:00,81.9,81.0,29.66,SSW,202,3.2,-999.0,97,-99.99,,,0.12,Acu-Link.com,2013-06-11 18:59:00,
2013-06-11 15:14:00,84.0,83.4,29.66,South,180,5.8,-999.0,98,-99.99,,,0.12,Acu-Link.com,2013-06-11 19:14:00,
2013-06-11 15:30:00,85.5,83.2,29.65,South,180,4.7,-999.0,93,-99.99,,,0.12,Acu-Link.com,2013-06-11 19:30:00,
2013-06-11 15:45:00,86.2,85.2,29.64,SSW,202,5.3,-999.0,97,-99.99,,,0.12,Acu-Link.com,2013-06-11 19:45:00,
2013-06-11 16:00:00,84.9,80.6,29.64,SSW,202,2.2,-999.0,87,-99.99,,,0.12,Acu-Link.com,2013-06-11 20:00:00,
2013-06-11 16:15:00,85.6,75.1,29.64,South,180,3.7,-999.0,71,-99.99,,,0.12,Acu-Link.com,2013-06-11 20:15:00,
2013-06-11 16:30:00,86.4,75.0,29.64,WSW,247,2.2,-999.0,69,-99.99,,,0.12,Acu-Link.com,2013-06-11 20:30:00,
2013-06-11 16:45:00,87.1,77.8,29.64,West,270,1.7,-999.0,74,-99.99,,,0.12,Acu-Link.com,2013-06-11 20:45:00,
2013-06-11 17:00:00,86.2,73.5,29.64,ESE,112,3.7,-999.0,66,-99.99,,,0.12,Acu-Link.com,2013-06-11 21:00:00,
2013-06-11 17:15:00,85.8,73.5,29.64,NE,45,2.7,-999.0,67,-99.99,,,0.12,Acu-Link.com,2013-06-11 21:15:00,
2013-06-11 17:30:00,86.5,74.7,29.63,SSE,157,3.7,-999.0,68,-99.99,,,0.12,Acu-Link.com,2013-06-11 21:30:00,
2013-06-11 17:46:00,84.6,71.1,29.63,NNW,337,2.2,-999.0,64,-99.99,,,0.12,Acu-Link.com,2013-06-11 21:46:00,
2013-06-11 18:01:00,83.8,72.9,29.63,WNW,292,2.2,-999.0,70,-99.99,,,0.12,Acu-Link.com,2013-06-11 22:01:00,
2013-06-11 18:16:00,82.2,73.5,29.63,SSE,157,2.7,-999.0,75,-99.99,,,0.12,Acu-Link.com,2013-06-11 22:16:00,
2013-06-11 19:31:00,79.2,78.6,29.64,WSW,247,3.7,-999.0,98,-99.99,,,0.12,Acu-Link.com,2013-06-11 23:31:00,
2013-06-11 19:46:00,79.2,78.6,29.64,WSW,247,2.7,-999.0,98,-99.99,,,0.12,Acu-Link.com,2013-06-11 23:46:00,
2013-06-11 20:02:00,78.6,78.0,29.65,South,180,3.2,-999.0,98,-99.99,,,0.12,Acu-Link.com,2013-06-12 00:02:00,
2013-06-11 20:17:00,77.9,77.3,29.66,WSW,247,2.2,-999.0,98,-99.99,,,0.12,Acu-Link.com,2013-06-12 00:17:00,
2013-06-11 20:32:00,77.7,77.1,29.66,South,180,2.2,-999.0,98,-99.99,,,0.12,Acu-Link.com,2013-06-12 00:32:00,
2013-06-11 20:47:00,77.2,76.6,29.67,South,180,1.1,-999.0,98,-99.99,,,0.12,Acu-Link.com,2013-06-12 00:47:00,
2013-06-11 21:02:00,76.1,75.5,29.67,SW,225,1.1,-999.0,98,-99.99,,,0.12,Acu-Link.com,2013-06-12 01:02:00,
2013-06-11 21:17:00,75.0,74.4,29.68,South,180,1.7,-999.0,98,-99.99,,,0.12,Acu-Link.com,2013-06-12 01:17:00,
2013-06-11 21:32:00,74.5,73.9,29.68,SSW,202,1.7,-999.0,98,-99.99,,,0.12,Acu-Link.com,2013-06-12 01:32:00,
2013-06-11 21:47:00,73.9,73.3,29.70,SW,225,2.2,-999.0,98,-99.99,,,0.12,Acu-Link.com,2013-06-12 01:47:00,
2013-06-11 22:02:00,73.8,73.2,29.70,SW,225,2.7,-999.0,98,-99.99,,,0.12,Acu-Link.com,2013-06-12 02:02:00,
2013-06-11 22:18:00,73.4,72.8,29.71,West,270,2.2,-999.0,98,-99.99,,,0.12,Acu-Link.com,2013-06-12 02:18:00,
2013-06-11 22:33:00,73.2,72.6,29.71,SW,225,2.2,-999.0,98,-99.99,,,0.12,Acu-Link.com,2013-06-12 02:33:00,
2013-06-11 22:48:00,73.0,72.4,29.72,WSW,247,1.7,-999.0,98,-99.99,,,0.12,Acu-Link.com,2013-06-12 02:48:00,
2013-06-11 23:03:00,72.3,71.7,29.72,SSW,202,1.7,-999.0,98,-99.99,,,0.12,Acu-Link.com,2013-06-12 03:03:00,
2013-06-11 23:18:00,72.0,71.4,29.72,South,180,3.2,-999.0,98,-99.99,,,0.12,Acu-Link.com,2013-06-12 03:18:00,
2013-06-11 23:33:00,71.6,71.0,29.73,SSW,202,3.2,-999.0,98,-99.99,,,0.12,Acu-Link.com,2013-06-12 03:33:00,
2013-06-11 23:48:00,71.2,70.6,29.72,SSW,202,2.2,-999.0,98,-99.99,,,0.12,Acu-Link.com,2013-06-12 03:48:00,